createdAt,value
2024-03-17T00:00:03.055Z,-2.517
2024-03-17T00:01:03.123Z,-2.584
2024-03-17T00:02:03.073Z,-2.626
2024-03-17T00:03:03.102Z,-2.653
2024-03-17T00:04:03.095Z,-2.625
2024-03-17T00:05:03.090Z,-2.668
2024-03-17T00:06:03.092Z,-2.617
2024-03-17T00:07:03.119Z,-2.602
2024-03-17T00:08:03.110Z,-2.563
2024-03-17T00:09:03.144Z,-2.576
2024-03-17T00:10:03.149Z,-2.577
2024-03-17T00:11:03.152Z,-2.645
2024-03-17T00:12:03.164Z,-2.657
2024-03-17T00:13:03.221Z,-2.673
2024-03-17T00:14:03.186Z,-2.657
2024-03-17T00:15:03.190Z,-2.709
2024-03-17T00:16:03.213Z,-2.730
2024-03-17T00:17:03.197Z,-2.730
2024-03-17T00:18:03.226Z,-2.703
2024-03-17T00:19:03.219Z,-2.688
2024-03-17T00:20:03.222Z,-2.663
2024-03-17T00:21:03.232Z,-2.604
2024-03-17T00:22:03.281Z,-2.618
2024-03-17T00:23:03.295Z,-2.617
2024-03-17T00:24:03.262Z,-2.618
2024-03-17T00:25:03.317Z,-2.549
2024-03-17T00:26:03.289Z,-2.576
2024-03-17T00:27:03.293Z,-2.574
2024-03-17T00:28:03.317Z,-2.576
2024-03-17T00:29:03.314Z,-2.548
2024-03-17T00:30:03.293Z,-2.465
2024-03-17T00:31:03.325Z,-2.399
2024-03-17T00:32:03.332Z,-2.378
2024-03-17T00:33:03.333Z,-2.430
2024-03-17T00:34:03.362Z,-2.445
2024-03-17T00:35:03.356Z,-2.458
2024-03-17T00:36:03.375Z,-2.384
2024-03-17T00:37:03.422Z,-2.369
2024-03-17T00:38:03.396Z,-2.385
2024-03-17T00:39:03.404Z,-2.342
2024-03-17T00:40:03.480Z,-2.328
2024-03-17T00:41:03.423Z,-2.310
2024-03-17T00:42:03.437Z,-2.301
2024-03-17T00:43:03.462Z,-2.315
2024-03-17T00:44:03.454Z,-2.301
2024-03-17T00:45:03.448Z,-2.301
2024-03-17T00:46:03.536Z,-2.300
2024-03-17T00:47:03.472Z,-2.286
2024-03-17T00:48:03.489Z,-2.312
2024-03-17T00:49:03.558Z,-2.324
2024-03-17T00:50:03.513Z,-2.312
2024-03-17T00:51:03.533Z,-2.325
2024-03-17T00:52:03.555Z,-2.305
2024-03-17T00:53:03.543Z,-2.289
2024-03-17T00:54:03.567Z,-2.281
2024-03-17T00:55:03.630Z,-2.317
2024-03-17T00:56:03.571Z,-2.248
2024-03-17T00:57:03.573Z,-2.261
2024-03-17T00:58:03.590Z,-2.261
2024-03-17T00:59:03.589Z,-2.208
2024-03-17T01:00:03.601Z,-2.195
2024-03-17T01:01:03.638Z,-2.176
2024-03-17T01:02:03.610Z,-2.217
2024-03-17T01:03:03.622Z,-2.204
2024-03-17T01:04:03.668Z,-2.190
2024-03-17T01:05:03.637Z,-2.174
2024-03-17T01:06:03.643Z,-2.202
2024-03-17T01:07:03.684Z,-2.201
2024-03-17T01:08:03.661Z,-2.187
2024-03-17T01:09:03.668Z,-2.214
2024-03-17T01:10:03.703Z,-2.227
2024-03-17T01:11:03.672Z,-2.171
2024-03-17T01:12:03.680Z,-2.157
2024-03-17T01:13:03.709Z,-2.117
2024-03-17T01:14:03.709Z,-2.095
2024-03-17T01:15:03.701Z,-2.136
2024-03-17T01:16:03.721Z,-2.132
2024-03-17T01:17:03.733Z,-2.146
2024-03-17T01:18:03.744Z,-2.132
2024-03-17T01:19:03.756Z,-2.146
2024-03-17T01:20:03.739Z,-2.146
2024-03-17T01:21:03.747Z,-2.145
2024-03-17T01:22:03.796Z,-2.145
2024-03-17T01:23:03.782Z,-2.145
2024-03-17T01:24:03.782Z,-2.145
2024-03-17T01:25:03.802Z,-2.159
2024-03-17T01:26:03.796Z,-2.138
2024-03-17T01:27:03.807Z,-2.152
2024-03-17T01:28:03.889Z,-2.178
2024-03-17T01:29:03.832Z,-2.178
2024-03-17T01:30:03.823Z,-2.179
2024-03-17T01:31:03.867Z,-2.187
2024-03-17T01:32:03.846Z,-2.187
2024-03-17T01:33:03.846Z,-2.173
2024-03-17T01:34:03.888Z,-2.172
2024-03-17T01:35:03.867Z,-2.187
2024-03-17T01:36:03.873Z,-2.172
2024-03-17T01:37:03.925Z,-2.185
2024-03-17T01:38:03.900Z,-2.159
2024-03-17T01:39:03.913Z,-2.171
2024-03-17T01:40:03.944Z,-2.204
2024-03-17T01:41:03.934Z,-2.124
2024-03-17T01:42:03.958Z,-2.122
2024-03-17T01:43:03.974Z,-2.138
2024-03-17T01:44:03.957Z,-2.116
2024-03-17T01:45:03.956Z,-2.171
2024-03-17T01:46:04.016Z,-2.215
2024-03-17T01:47:03.966Z,-2.186
2024-03-17T01:48:03.986Z,-2.186
2024-03-17T01:49:03.999Z,-2.137
2024-03-17T01:50:04.003Z,-2.173
2024-03-17T01:51:04.041Z,-2.145
2024-03-17T01:52:04.049Z,-2.132
2024-03-17T01:53:04.054Z,-2.118
2024-03-17T01:54:04.056Z,-2.063
2024-03-17T01:55:04.076Z,-2.076
2024-03-17T01:56:04.059Z,-2.064
2024-03-17T01:57:04.068Z,-2.064
2024-03-17T01:58:04.118Z,-2.049
2024-03-17T01:59:04.076Z,-2.064
2024-03-17T02:00:04.090Z,-2.064
2024-03-17T02:01:04.100Z,-2.069
2024-03-17T02:02:04.105Z,-2.056
2024-03-17T02:03:04.119Z,-2.042
2024-03-17T02:04:04.142Z,-2.002
2024-03-17T02:05:07.232Z,-2.002
2024-03-17T02:06:04.149Z,-1.980
2024-03-17T02:07:04.164Z,-2.007
2024-03-17T02:08:04.157Z,-2.005
2024-03-17T02:09:04.167Z,-2.021
2024-03-17T02:10:04.204Z,-1.980
2024-03-17T02:11:04.176Z,-1.966
2024-03-17T02:12:04.181Z,-1.991
2024-03-17T02:13:04.210Z,-1.963
2024-03-17T02:14:04.246Z,-1.950
2024-03-17T02:15:04.218Z,-1.978
2024-03-17T02:16:04.245Z,-2.036
2024-03-17T02:17:04.222Z,-2.050
2024-03-17T02:18:04.233Z,-2.049
2024-03-17T02:19:04.270Z,-2.035
2024-03-17T02:20:04.248Z,-1.996
2024-03-17T02:21:04.249Z,-1.986
2024-03-17T02:22:04.300Z,-1.946
2024-03-17T02:23:04.278Z,-1.892
2024-03-17T02:24:04.273Z,-1.877
2024-03-17T02:25:04.354Z,-1.879
2024-03-17T02:26:04.285Z,-1.903
2024-03-17T02:27:04.293Z,-1.891
2024-03-17T02:28:04.366Z,-1.876
2024-03-17T02:29:04.321Z,-1.877
2024-03-17T02:30:04.336Z,-1.876
2024-03-17T02:31:04.366Z,-1.916
2024-03-17T02:32:04.365Z,-1.902
2024-03-17T02:33:04.367Z,-1.903
2024-03-17T02:34:04.368Z,-1.875
2024-03-17T02:35:04.372Z,-1.876
2024-03-17T02:36:04.389Z,-1.877
2024-03-17T02:37:04.398Z,-1.864
2024-03-17T02:38:04.393Z,-1.877
2024-03-17T02:39:04.402Z,-1.921
2024-03-17T02:40:04.488Z,-1.898
2024-03-17T02:41:04.429Z,-1.934
2024-03-17T02:42:04.456Z,-1.918
2024-03-17T02:43:04.478Z,-1.911
2024-03-17T02:44:04.453Z,-1.933
2024-03-17T02:45:04.454Z,-1.904
2024-03-17T02:46:04.476Z,-1.887
2024-03-17T02:47:04.469Z,-1.928
2024-03-17T02:48:04.487Z,-1.940
2024-03-17T02:49:04.490Z,-1.929
2024-03-17T02:50:04.493Z,-1.956
2024-03-17T02:51:04.514Z,-1.988
2024-03-17T02:52:04.560Z,-1.976
2024-03-17T02:53:04.539Z,-1.962
2024-03-17T02:54:07.848Z,-1.934
2024-03-17T02:55:04.570Z,-1.909
2024-03-17T02:56:04.579Z,-1.893
2024-03-17T02:57:04.567Z,-1.891
2024-03-17T02:58:04.605Z,-1.918
2024-03-17T02:59:04.576Z,-1.904
2024-03-17T03:00:04.609Z,-1.907
2024-03-17T03:01:04.595Z,-1.975
2024-03-17T03:02:04.592Z,-1.950
2024-03-17T03:03:04.603Z,-1.960
2024-03-17T03:04:04.640Z,-1.989
2024-03-17T03:05:04.638Z,-2.003
2024-03-17T03:06:04.643Z,-2.125
2024-03-17T03:07:04.649Z,-2.125
2024-03-17T03:08:04.672Z,-2.126
2024-03-17T03:09:04.659Z,-2.127
2024-03-17T03:10:04.698Z,-2.097
2024-03-17T03:11:04.677Z,-2.074
2024-03-17T03:12:04.683Z,-2.072
2024-03-17T03:13:04.720Z,-2.106
2024-03-17T03:14:04.714Z,-2.209
2024-03-17T03:15:04.699Z,-2.229
2024-03-17T03:16:04.728Z,-2.229
2024-03-17T03:17:04.720Z,-2.229
2024-03-17T03:18:04.731Z,-2.217
2024-03-17T03:19:04.782Z,-2.209
2024-03-17T03:20:04.747Z,-2.221
2024-03-17T03:21:04.748Z,-2.222
2024-03-17T03:22:04.772Z,-2.197
2024-03-17T03:23:04.771Z,-2.208
2024-03-17T03:24:04.804Z,-2.231
2024-03-17T03:25:04.786Z,-2.320
2024-03-17T03:26:04.796Z,-2.298
2024-03-17T03:27:04.783Z,-2.298
2024-03-17T03:28:04.807Z,-2.298
2024-03-17T03:29:04.812Z,-2.300
2024-03-17T03:30:04.831Z,-2.275
2024-03-17T03:31:04.857Z,-2.309
2024-03-17T03:32:04.859Z,-2.310
2024-03-17T03:33:06.566Z,-2.353
2024-03-17T03:34:04.882Z,-2.358
2024-03-17T03:35:04.876Z,-2.345
2024-03-17T03:36:04.892Z,-2.345
2024-03-17T03:37:04.895Z,-2.359
2024-03-17T03:38:04.918Z,-2.358
2024-03-17T03:39:04.916Z,-2.361
2024-03-17T03:40:04.903Z,-2.362
2024-03-17T03:41:04.903Z,-2.377
2024-03-17T03:42:04.911Z,-2.383
2024-03-17T03:43:04.945Z,-2.429
2024-03-17T03:44:04.931Z,-2.482
2024-03-17T03:45:04.942Z,-2.469
2024-03-17T03:46:05.011Z,-2.484
2024-03-17T03:47:04.982Z,-2.463
2024-03-17T03:48:04.973Z,-2.461
2024-03-17T03:49:04.976Z,-2.551
2024-03-17T03:50:04.987Z,-2.536
2024-03-17T03:51:04.986Z,-2.549
2024-03-17T03:52:05.025Z,-2.537
2024-03-17T03:53:05.003Z,-2.525
2024-03-17T03:54:05.011Z,-2.612
2024-03-17T03:55:05.038Z,-2.586
2024-03-17T03:56:05.037Z,-2.575
2024-03-17T03:57:05.046Z,-2.573
2024-03-17T03:58:05.054Z,-2.573
2024-03-17T03:59:05.062Z,-2.606
2024-03-17T04:00:05.072Z,-2.607
2024-03-17T04:01:05.103Z,-2.663
2024-03-17T04:02:05.091Z,-2.663
2024-03-17T04:03:05.092Z,-2.699
2024-03-17T04:04:05.101Z,-2.742
2024-03-17T04:05:05.101Z,-2.721
2024-03-17T04:06:05.140Z,-2.728
2024-03-17T04:07:05.159Z,-2.719
2024-03-17T04:08:05.131Z,-2.720
2024-03-17T04:09:05.142Z,-2.700
2024-03-17T04:10:05.168Z,-2.733
2024-03-17T04:11:05.175Z,-2.755
2024-03-17T04:12:05.175Z,-2.768
2024-03-17T04:13:05.283Z,-2.783
2024-03-17T04:14:05.200Z,-2.804
2024-03-17T04:15:05.205Z,-2.804
2024-03-17T04:16:05.241Z,-2.804
2024-03-17T04:17:05.204Z,-2.791
2024-03-17T04:18:05.215Z,-2.779
2024-03-17T04:19:05.223Z,-2.850
2024-03-17T04:20:05.264Z,-2.873
2024-03-17T04:21:05.252Z,-2.897
2024-03-17T04:22:05.282Z,-2.885
2024-03-17T04:23:05.271Z,-2.898
2024-03-17T04:24:05.277Z,-2.938
2024-03-17T04:25:05.302Z,-2.911
2024-03-17T04:26:05.287Z,-2.900
2024-03-17T04:27:05.300Z,-2.914
2024-03-17T04:28:05.317Z,-2.924
2024-03-17T04:29:05.333Z,-2.937
2024-03-17T04:30:05.309Z,-2.977
2024-03-17T04:31:05.353Z,-2.965
2024-03-17T04:32:05.338Z,-2.965
2024-03-17T04:33:05.355Z,-2.953
2024-03-17T04:34:05.401Z,-2.969
2024-03-17T04:35:05.375Z,-2.982
2024-03-17T04:36:05.392Z,-2.956
2024-03-17T04:37:05.466Z,-2.935
2024-03-17T04:38:05.413Z,-2.969
2024-03-17T04:39:05.407Z,-2.908
2024-03-17T04:40:05.434Z,-2.908
2024-03-17T04:41:05.411Z,-2.918
2024-03-17T04:42:05.410Z,-2.904
2024-03-17T04:43:05.450Z,-2.905
2024-03-17T04:44:05.436Z,-2.900
2024-03-17T04:45:05.441Z,-2.900
2024-03-17T04:46:05.516Z,-2.887
2024-03-17T04:47:05.471Z,-2.830
2024-03-17T04:48:05.493Z,-2.819
2024-03-17T04:49:05.513Z,-2.849
2024-03-17T04:50:05.506Z,-2.836
2024-03-17T04:51:05.497Z,-2.814
2024-03-17T04:52:05.530Z,-2.788
2024-03-17T04:53:05.501Z,-2.776
2024-03-17T04:54:05.505Z,-2.724
2024-03-17T04:55:05.526Z,-2.738
2024-03-17T04:56:05.535Z,-2.737
2024-03-17T04:57:05.570Z,-2.750
2024-03-17T04:58:05.570Z,-2.749
2024-03-17T04:59:05.591Z,-2.711
2024-03-17T05:00:05.589Z,-2.723
2024-03-17T05:01:05.618Z,-2.736
2024-03-17T05:02:05.624Z,-2.751
2024-03-17T05:03:05.624Z,-2.735
2024-03-17T05:04:05.631Z,-2.705
2024-03-17T05:05:05.622Z,-2.692
2024-03-17T05:06:05.637Z,-2.690
2024-03-17T05:07:05.636Z,-2.690
2024-03-17T05:08:05.635Z,-2.626
2024-03-17T05:09:05.648Z,-2.649
2024-03-17T05:10:07.428Z,-2.606
2024-03-17T05:11:05.698Z,-2.606
2024-03-17T05:12:05.680Z,-2.606
2024-03-17T05:13:05.702Z,-2.633
2024-03-17T05:14:05.711Z,-2.635
2024-03-17T05:15:05.713Z,-2.623
2024-03-17T05:16:05.720Z,-2.660
2024-03-17T05:17:05.731Z,-2.686
2024-03-17T05:18:05.733Z,-2.664
2024-03-17T05:19:05.741Z,-2.659
2024-03-17T05:20:05.771Z,-2.683
2024-03-17T05:21:05.757Z,-2.681
2024-03-17T05:22:05.772Z,-2.659
2024-03-17T05:23:05.771Z,-2.682
2024-03-17T05:24:05.790Z,-2.672
2024-03-17T05:25:05.827Z,-2.672
2024-03-17T05:26:05.825Z,-2.708
2024-03-17T05:27:05.810Z,-2.698
2024-03-17T05:28:05.826Z,-2.711
2024-03-17T05:29:05.832Z,-2.734
2024-03-17T05:30:05.851Z,-2.734
2024-03-17T05:31:05.856Z,-2.746
2024-03-17T05:32:05.845Z,-2.746
2024-03-17T05:33:05.866Z,-2.759
2024-03-17T05:34:05.878Z,-2.779
2024-03-17T05:35:05.873Z,-2.792
2024-03-17T05:36:05.878Z,-2.792
2024-03-17T05:37:08.157Z,-2.818
2024-03-17T05:38:05.909Z,-2.805
2024-03-17T05:39:05.951Z,-2.812
2024-03-17T05:40:05.933Z,-2.813
2024-03-17T05:41:05.949Z,-2.813
2024-03-17T05:42:05.953Z,-2.826
2024-03-17T05:43:05.960Z,-2.852
2024-03-17T05:44:05.966Z,-2.788
2024-03-17T05:45:05.974Z,-2.789
2024-03-17T05:46:05.981Z,-2.798
2024-03-17T05:47:05.982Z,-2.789
2024-03-17T05:48:06.000Z,-2.789
2024-03-17T05:49:05.988Z,-2.775
2024-03-17T05:50:05.996Z,-2.744
2024-03-17T05:51:06.019Z,-2.723
2024-03-17T05:52:06.022Z,-2.709
2024-03-17T05:53:06.082Z,-2.731
2024-03-17T05:54:06.033Z,-2.676
2024-03-17T05:55:06.044Z,-2.698
2024-03-17T05:56:06.056Z,-2.650
2024-03-17T05:57:06.063Z,-2.650
2024-03-17T05:58:06.074Z,-2.686
2024-03-17T05:59:06.073Z,-2.640
2024-03-17T06:00:06.080Z,-2.639
2024-03-17T06:01:06.080Z,-2.652
2024-03-17T06:02:06.103Z,-2.612
2024-03-17T06:03:06.121Z,-2.557
2024-03-17T06:04:08.600Z,-2.521
2024-03-17T06:05:06.136Z,-2.569
2024-03-17T06:06:06.143Z,-2.556
2024-03-17T06:07:06.172Z,-2.546
2024-03-17T06:08:06.161Z,-2.559
2024-03-17T06:09:06.181Z,-2.529
2024-03-17T06:10:07.968Z,-2.516
2024-03-17T06:11:06.186Z,-2.556
2024-03-17T06:12:06.183Z,-2.510
2024-03-17T06:13:06.189Z,-2.490
2024-03-17T06:14:06.196Z,-2.453
2024-03-17T06:15:06.204Z,-2.452
2024-03-17T06:16:06.253Z,-2.438
2024-03-17T06:17:06.238Z,-2.474
2024-03-17T06:18:06.251Z,-2.486
2024-03-17T06:19:06.256Z,-2.515
2024-03-17T06:20:06.278Z,-2.527
2024-03-17T06:21:06.318Z,-2.540
2024-03-17T06:22:06.296Z,-2.538
2024-03-17T06:23:06.304Z,-2.549
2024-03-17T06:24:06.306Z,-2.527
2024-03-17T06:25:06.309Z,-2.528
2024-03-17T06:26:06.317Z,-2.545
2024-03-17T06:27:06.329Z,-2.607
2024-03-17T06:28:06.333Z,-2.581
2024-03-17T06:29:06.343Z,-2.586
2024-03-17T06:30:06.375Z,-2.541
2024-03-17T06:31:06.372Z,-2.493
2024-03-17T06:32:06.382Z,-2.426
2024-03-17T06:33:06.402Z,-2.400
2024-03-17T06:34:06.403Z,-2.424
2024-03-17T06:35:06.420Z,-2.435
2024-03-17T06:36:06.422Z,-2.413
2024-03-17T06:37:06.421Z,-2.415
2024-03-17T06:38:06.433Z,-2.387
2024-03-17T06:39:06.431Z,-2.389
2024-03-17T06:40:06.437Z,-2.367
2024-03-17T06:41:06.459Z,-2.398
2024-03-17T06:42:06.460Z,-2.354
2024-03-17T06:43:06.467Z,-2.359
2024-03-17T06:44:06.511Z,-2.373
2024-03-17T06:45:06.489Z,-2.346
2024-03-17T06:46:06.493Z,-2.359
2024-03-17T06:47:06.507Z,-2.369
2024-03-17T06:48:06.507Z,-2.326
2024-03-17T06:49:06.541Z,-2.312
2024-03-17T06:50:06.530Z,-2.313
2024-03-17T06:51:06.540Z,-2.285
2024-03-17T06:52:06.540Z,-2.255
2024-03-17T06:53:06.537Z,-2.282
2024-03-17T06:54:06.549Z,-2.202
2024-03-17T06:55:06.565Z,-2.224
2024-03-17T06:56:06.583Z,-2.210
2024-03-17T06:57:06.589Z,-2.174
2024-03-17T06:58:06.652Z,-2.200
2024-03-17T06:59:06.612Z,-2.201
2024-03-17T07:00:06.630Z,-2.211
2024-03-17T07:01:06.638Z,-2.239
2024-03-17T07:02:06.637Z,-2.177
2024-03-17T07:03:06.653Z,-2.204
2024-03-17T07:04:06.650Z,-2.245
2024-03-17T07:05:06.653Z,-2.216
2024-03-17T07:06:06.666Z,-2.232
2024-03-17T07:07:06.673Z,-2.210
2024-03-17T07:08:06.683Z,-2.138
2024-03-17T07:09:06.697Z,-2.153
2024-03-17T07:10:06.714Z,-2.140
2024-03-17T07:11:06.717Z,-2.183
2024-03-17T07:12:06.719Z,-2.213
2024-03-17T07:13:06.737Z,-2.241
2024-03-17T07:14:07.764Z,-2.254
2024-03-17T07:15:06.761Z,-2.228
2024-03-17T07:16:06.760Z,-2.255
2024-03-17T07:17:06.771Z,-2.242
2024-03-17T07:18:06.779Z,-2.269
2024-03-17T07:19:06.769Z,-2.243
2024-03-17T07:20:06.780Z,-2.353
2024-03-17T07:21:06.805Z,-2.410
2024-03-17T07:22:06.808Z,-2.396
2024-03-17T07:23:06.817Z,-2.458
2024-03-17T07:24:06.831Z,-2.618
2024-03-17T07:25:06.847Z,-2.808
2024-03-17T07:26:06.856Z,-2.837
2024-03-17T07:27:06.849Z,-2.916
2024-03-17T07:28:06.857Z,-2.977
2024-03-17T07:29:06.868Z,-2.953
2024-03-17T07:30:06.867Z,-3.062
2024-03-17T07:31:06.894Z,-3.070
2024-03-17T07:32:06.886Z,-3.208
2024-03-17T07:33:06.904Z,-3.232
2024-03-17T07:34:06.897Z,-3.451
2024-03-17T07:35:06.921Z,-3.450
2024-03-17T07:36:06.935Z,-3.593
2024-03-17T07:37:06.943Z,-3.748
2024-03-17T07:38:06.941Z,-3.980
2024-03-17T07:39:06.949Z,-4.042
2024-03-17T07:40:06.976Z,-4.178
2024-03-17T07:41:06.958Z,-4.222
2024-03-17T07:42:06.975Z,-4.310
2024-03-17T07:43:06.976Z,-4.404
2024-03-17T07:44:06.977Z,-4.454
2024-03-17T07:45:07.004Z,-4.430
2024-03-17T07:46:06.976Z,-4.339
2024-03-17T07:47:09.711Z,-4.392
2024-03-17T07:48:07.004Z,-4.344
2024-03-17T07:49:07.039Z,-4.327
2024-03-17T07:50:07.044Z,-4.302
2024-03-17T07:51:07.048Z,-4.055
2024-03-17T07:52:07.051Z,-3.863
2024-03-17T07:53:07.058Z,-3.859
2024-03-17T07:54:07.082Z,-3.875
2024-03-17T07:55:07.068Z,-3.911
2024-03-17T07:56:07.094Z,-4.035
2024-03-17T07:57:07.077Z,-4.086
2024-03-17T07:58:07.079Z,-4.016
2024-03-17T07:59:07.092Z,-4.071
2024-03-17T08:00:07.105Z,-4.108
2024-03-17T08:01:07.111Z,-4.215
2024-03-17T08:02:07.126Z,-4.318
2024-03-17T08:03:07.170Z,-4.349
2024-03-17T08:04:07.151Z,-4.190
2024-03-17T08:05:07.157Z,-4.207
2024-03-17T08:06:07.173Z,-4.242
2024-03-17T08:07:07.169Z,-4.158
2024-03-17T08:08:07.188Z,-4.122
2024-03-17T08:09:07.182Z,-4.283
2024-03-17T08:10:07.203Z,-4.527
2024-03-17T08:11:07.188Z,-4.674
2024-03-17T08:12:07.188Z,-4.776
2024-03-17T08:13:07.210Z,-4.911
2024-03-17T08:14:07.222Z,-5.003
2024-03-17T08:15:07.230Z,-5.095
2024-03-17T08:16:07.233Z,-5.266
2024-03-17T08:17:07.278Z,-5.332
2024-03-17T08:18:07.252Z,-5.583
2024-03-17T08:19:07.273Z,-5.742
2024-03-17T08:20:07.276Z,-5.729
2024-03-17T08:21:07.277Z,-5.787
2024-03-17T08:22:07.304Z,-5.941
2024-03-17T08:23:07.284Z,-5.839
2024-03-17T08:24:07.291Z,-5.839
2024-03-17T08:25:07.302Z,-5.721
2024-03-17T08:26:07.313Z,-5.639
2024-03-17T08:27:07.332Z,-5.699
2024-03-17T08:28:07.356Z,-5.738
2024-03-17T08:29:07.351Z,-5.943
2024-03-17T08:30:07.455Z,-6.110
2024-03-17T08:31:07.373Z,-6.135
2024-03-17T08:32:07.370Z,-6.068
2024-03-17T08:33:07.373Z,-6.074
2024-03-17T08:34:07.373Z,-6.041
2024-03-17T08:35:07.381Z,-5.995
2024-03-17T08:36:07.393Z,-5.805
2024-03-17T08:37:07.388Z,-5.720
2024-03-17T08:38:07.423Z,-5.691
2024-03-17T08:39:07.417Z,-5.412
2024-03-17T08:40:07.419Z,-5.473
2024-03-17T08:41:07.433Z,-5.492
2024-03-17T08:42:07.439Z,-5.605
2024-03-17T08:43:07.497Z,-5.831
2024-03-17T08:44:07.449Z,-5.937
2024-03-17T08:45:08.416Z,-6.171
2024-03-17T08:46:07.460Z,-6.192
2024-03-17T08:47:07.460Z,-6.058
2024-03-17T08:48:07.469Z,-6.223
2024-03-17T08:49:07.474Z,-6.460
2024-03-17T08:50:07.496Z,-6.790
2024-03-17T08:51:07.489Z,-6.684
2024-03-17T08:52:07.502Z,-6.644
2024-03-17T08:53:07.517Z,-6.844
2024-03-17T08:54:07.519Z,-7.160
2024-03-17T08:55:07.530Z,-7.348
2024-03-17T08:56:07.537Z,-7.340
2024-03-17T08:57:07.543Z,-7.180
2024-03-17T08:58:07.545Z,-7.132
2024-03-17T08:59:07.571Z,-6.940
2024-03-17T09:00:07.562Z,-6.858
2024-03-17T09:01:07.558Z,-6.780
2024-03-17T09:02:07.566Z,-7.011
2024-03-17T09:03:07.581Z,-7.120
2024-03-17T09:04:07.621Z,-7.219
2024-03-17T09:05:07.597Z,-7.161
2024-03-17T09:06:07.608Z,-7.045
2024-03-17T09:07:07.609Z,-6.775
2024-03-17T09:08:07.622Z,-6.673
2024-03-17T09:09:07.624Z,-6.632
2024-03-17T09:10:07.631Z,-6.670
2024-03-17T09:11:07.642Z,-6.782
2024-03-17T09:12:07.640Z,-7.057
2024-03-17T09:13:07.684Z,-7.243
2024-03-17T09:14:07.647Z,-7.055
2024-03-17T09:15:07.663Z,-7.121
2024-03-17T09:16:07.667Z,-7.318
2024-03-17T09:17:07.671Z,-7.107
2024-03-17T09:18:07.703Z,-7.297
2024-03-17T09:19:07.699Z,-7.181
2024-03-17T09:20:07.719Z,-7.543
2024-03-17T09:21:07.719Z,-7.230
2024-03-17T09:22:07.733Z,-7.275
2024-03-17T09:23:07.738Z,-7.308
2024-03-17T09:24:07.748Z,-7.163
2024-03-17T09:25:07.750Z,-7.231
2024-03-17T09:26:07.744Z,-6.992
2024-03-17T09:27:07.764Z,-6.998
2024-03-17T09:28:07.762Z,-6.825
2024-03-17T09:29:07.778Z,-6.659
2024-03-17T09:30:07.782Z,-6.497
2024-03-17T09:31:07.792Z,-6.401
2024-03-17T09:32:07.810Z,-6.157
2024-03-17T09:33:07.810Z,-5.828
2024-03-17T09:34:07.822Z,-5.515
2024-03-17T09:35:07.878Z,-5.582
2024-03-17T09:36:07.833Z,-5.726
2024-03-17T09:37:07.842Z,-5.627
2024-03-17T09:38:07.848Z,-5.650
2024-03-17T09:39:07.848Z,-5.564
2024-03-17T09:40:07.860Z,-5.657
2024-03-17T09:41:07.878Z,-5.456
2024-03-17T09:42:07.879Z,-5.297
2024-03-17T09:43:07.888Z,-5.343
2024-03-17T09:44:07.897Z,-5.325
2024-03-17T09:45:07.909Z,-5.476
2024-03-17T09:46:07.932Z,-5.572
2024-03-17T09:47:07.938Z,-5.324
2024-03-17T09:48:07.931Z,-5.432
2024-03-17T09:49:07.942Z,-5.529
2024-03-17T09:50:07.948Z,-5.529
2024-03-17T09:51:07.956Z,-5.574
2024-03-17T09:52:07.962Z,-5.317
2024-03-17T09:53:07.958Z,-4.885
2024-03-17T09:54:07.965Z,-4.808
2024-03-17T09:55:07.989Z,-4.708
2024-03-17T09:56:07.998Z,-4.648
2024-03-17T09:57:08.007Z,-4.567
2024-03-17T09:58:08.863Z,-4.565
2024-03-17T09:59:08.030Z,-4.481
2024-03-17T10:00:08.052Z,-4.623
2024-03-17T10:01:08.046Z,-4.719
2024-03-17T10:02:08.061Z,-4.768
2024-03-17T10:03:08.059Z,-4.914
2024-03-17T10:04:08.056Z,-5.021
2024-03-17T10:05:08.059Z,-5.191
2024-03-17T10:06:08.072Z,-5.150
2024-03-17T10:07:08.070Z,-5.248
2024-03-17T10:08:08.107Z,-5.308
2024-03-17T10:09:08.122Z,-5.472
2024-03-17T10:10:08.092Z,-5.414
2024-03-17T10:11:08.108Z,-5.268
2024-03-17T10:12:08.123Z,-5.117
2024-03-17T10:13:08.126Z,-4.996
2024-03-17T10:14:08.241Z,-4.968
2024-03-17T10:15:08.147Z,-5.114
2024-03-17T10:16:08.147Z,-5.281
2024-03-17T10:17:08.179Z,-5.260
2024-03-17T10:18:08.154Z,-5.244
2024-03-17T10:19:08.167Z,-5.471
2024-03-17T10:20:08.188Z,-5.198
2024-03-17T10:21:08.186Z,-4.950
2024-03-17T10:22:08.191Z,-4.989
2024-03-17T10:23:08.215Z,-4.968
2024-03-17T10:24:08.215Z,-5.007
2024-03-17T10:25:08.226Z,-4.844
2024-03-17T10:26:08.231Z,-4.903
2024-03-17T10:27:08.241Z,-4.863
2024-03-17T10:28:08.250Z,-4.742
2024-03-17T10:29:08.254Z,-4.557
2024-03-17T10:30:08.249Z,-4.592
2024-03-17T10:31:08.272Z,-4.633
2024-03-17T10:32:08.269Z,-4.534
2024-03-17T10:33:08.289Z,-4.513
2024-03-17T10:34:11.926Z,-4.516
2024-03-17T10:35:08.301Z,-4.579
2024-03-17T10:36:08.307Z,-4.421
2024-03-17T10:37:08.314Z,-4.421
2024-03-17T10:38:08.316Z,-4.202
2024-03-17T10:39:08.326Z,-4.497
2024-03-17T10:40:08.324Z,-4.282
2024-03-17T10:41:08.328Z,-4.050
2024-03-17T10:42:08.341Z,-4.151
2024-03-17T10:43:08.352Z,-4.132
2024-03-17T10:44:08.366Z,-4.171
2024-03-17T10:45:08.367Z,-3.995
2024-03-17T10:46:08.384Z,-3.918
2024-03-17T10:47:08.384Z,-3.841
2024-03-17T10:48:08.392Z,-4.036
2024-03-17T10:49:08.394Z,-4.073
2024-03-17T10:50:08.409Z,-3.997
2024-03-17T10:51:08.415Z,-4.084
2024-03-17T10:52:08.411Z,-4.124
2024-03-17T10:53:08.417Z,-4.301
2024-03-17T10:54:08.415Z,-4.224
2024-03-17T10:55:08.420Z,-4.202
2024-03-17T10:56:08.444Z,-4.059
2024-03-17T10:57:08.462Z,-3.927
2024-03-17T10:58:08.458Z,-3.807
2024-03-17T10:59:08.463Z,-3.585
2024-03-17T11:00:08.482Z,-3.704
2024-03-17T11:01:08.472Z,-3.762
2024-03-17T11:02:10.431Z,-3.609
2024-03-17T11:03:08.480Z,-3.857
2024-03-17T11:04:08.479Z,-3.675
2024-03-17T11:05:08.508Z,-3.277
2024-03-17T11:06:08.494Z,-3.508
2024-03-17T11:07:08.503Z,-3.258
2024-03-17T11:08:12.029Z,-3.047
2024-03-17T11:09:08.534Z,-3.217
2024-03-17T11:10:08.594Z,-3.218
2024-03-17T11:11:08.533Z,-3.413
2024-03-17T11:12:08.539Z,-3.355
2024-03-17T11:13:08.546Z,-3.430
2024-03-17T11:14:08.560Z,-3.373
2024-03-17T11:15:08.563Z,-3.317
2024-03-17T11:16:08.571Z,-3.452
2024-03-17T11:17:08.584Z,-3.434
2024-03-17T11:18:08.579Z,-3.300
2024-03-17T11:19:08.585Z,-3.434
2024-03-17T11:20:08.608Z,-3.594
2024-03-17T11:21:08.613Z,-3.595
2024-03-17T11:22:08.618Z,-3.535
2024-03-17T11:23:08.632Z,-3.456
2024-03-17T11:24:08.638Z,-3.286
2024-03-17T11:25:08.636Z,-3.079
2024-03-17T11:26:08.647Z,-3.099
2024-03-17T11:27:08.644Z,-3.040
2024-03-17T11:28:08.670Z,-2.911
2024-03-17T11:29:08.658Z,-2.946
2024-03-17T11:30:08.664Z,-3.116
2024-03-17T11:31:08.675Z,-3.115
2024-03-17T11:32:11.851Z,-3.343
2024-03-17T11:33:08.678Z,-3.485
2024-03-17T11:34:08.688Z,-3.259
2024-03-17T11:35:08.705Z,-3.130
2024-03-17T11:36:08.707Z,-3.299
2024-03-17T11:37:08.744Z,-3.304
2024-03-17T11:38:09.804Z,-3.250
2024-03-17T11:39:08.728Z,-3.342
2024-03-17T11:40:08.744Z,-3.361
2024-03-17T11:41:08.743Z,-3.304
2024-03-17T11:42:08.759Z,-3.285
2024-03-17T11:43:08.754Z,-3.234
2024-03-17T11:44:08.757Z,-2.881
2024-03-17T11:45:08.765Z,-3.047
2024-03-17T11:46:08.766Z,-3.031
2024-03-17T11:47:09.652Z,-2.913
2024-03-17T11:48:08.788Z,-2.989
2024-03-17T11:49:08.800Z,-2.839
2024-03-17T11:50:11.160Z,-3.079
2024-03-17T11:51:08.832Z,-3.136
2024-03-17T11:52:08.816Z,-3.212
2024-03-17T11:53:08.824Z,-3.040
2024-03-17T11:54:08.830Z,-2.963
2024-03-17T11:55:08.836Z,-2.983
2024-03-17T11:56:12.226Z,-2.925
2024-03-17T11:57:08.843Z,-2.963
2024-03-17T11:58:08.857Z,-2.832
2024-03-17T11:59:08.869Z,-2.741
2024-03-17T12:00:08.876Z,-3.090
2024-03-17T12:01:08.884Z,-3.185
2024-03-17T12:02:11.786Z,-3.034
2024-03-17T12:03:08.903Z,-3.113
2024-03-17T12:04:08.917Z,-3.093
2024-03-17T12:05:08.936Z,-3.070
2024-03-17T12:06:08.940Z,-2.957
2024-03-17T12:07:08.936Z,-3.016
2024-03-17T12:08:08.940Z,-3.000
2024-03-17T12:09:08.938Z,-2.909
2024-03-17T12:10:08.959Z,-2.938
2024-03-17T12:11:08.960Z,-2.902
2024-03-17T12:12:08.972Z,-2.792
2024-03-17T12:13:08.980Z,-2.739
2024-03-17T12:14:10.696Z,-2.700
2024-03-17T12:15:08.991Z,-2.886
2024-03-17T12:16:08.998Z,-3.033
2024-03-17T12:17:09.006Z,-2.997
2024-03-17T12:18:09.015Z,-3.110
2024-03-17T12:19:09.043Z,-3.187
2024-03-17T12:20:12.358Z,-3.429
2024-03-17T12:21:09.026Z,-3.448
2024-03-17T12:22:09.038Z,-3.449
2024-03-17T12:23:09.042Z,-3.387
2024-03-17T12:24:09.059Z,-3.134
2024-03-17T12:25:09.050Z,-3.114
2024-03-17T12:26:09.065Z,-3.014
2024-03-17T12:27:09.082Z,-2.814
2024-03-17T12:28:09.093Z,-2.400